Pagrindinis puslapis
METAR-TAF:

METAR-TAF

Oro uostai :

Urugvajana, Pietų Rio Grandė, Brazilija

platuma: 29-47S, ilguma: 057-02W, Aukštis: 74 m

METAR: trūkstamas

Laikas: 16:31 (19:31 UTC)

Prognozė

Ataskaita buvo paskelbta 4 valandos ir 31 minutes, ne 15:00 UTC
Prognozė galioja nuo 05 metu 18 UTC su 06 metu 06 UTC
Vėjas 8 kt iš Pietų/Pietvakarių
Matomumas 10 km arba daugiau
Mažai debesys ne aukštis 3500 ft

TAF: SBUG 051500Z 0518/0606 20008KT 9999 FEW035 TX27/0518Z TN15/0605Z RMK PCO

Orai ataskaitas ir orų prognozės (METAR, TAF).

turimą stotys yra geltonos ir raudonos taškus žemėlapyje.

Perkelti pele per norėdami pamatyti stoties vardą.

Tada spustelėkite, norėdami matyti oro stebėjimo ir prognozės.

Norėdami pakeisti žemėlapį: spustelėkite ant žalios mygtukų su juodo kryžiaus žemyn,; žalią mygtuką su brūkšneliu, jei norite nutolinti; arba žalių rodyklių gretimoms žemėlapius.


METAR-TAF: